Time;durP1;ratioP1;P1;durP2;ratioP2;P2;SDS_P1;SDS_P2;PMS_P1;PMS_P2;Temp;Humidity;BMP_temperature;BMP_pressure;BME280_temperature;BME280_humidity;BME280_pressure;Samples;Min_cycle;Max_cycle;Signal;HPM_P1;HPM_P2
2021/05/21 00:00:17;;;;;;;4.93;3.85;;;;;;;13.73;57.53;100054.75;4395889;32;34399;-84
2021/05/21 00:02:45;;;;;;;5.07;3.80;;;;;;;13.74;57.54;100061.72;4383702;32;34910;-83
2021/05/21 00:05:13;;;;;;;4.70;3.90;;;;;;;13.75;57.50;100052.97;4399774;32;33250;-84
2021/05/21 00:07:40;;;;;;;6.37;3.50;;;;;;;13.88;57.26;100045.00;4388872;32;34073;-85
2021/05/21 00:10:08;;;;;;;4.22;3.80;;;;;;;13.91;57.08;100047.59;4395332;32;35672;-84
2021/05/21 00:12:36;;;;;;;6.00;4.05;;;;;;;13.94;56.99;100047.56;4395326;32;34012;-84
2021/05/21 00:15:07;;;;;;;4.80;3.65;;;;;;;13.99;56.81;100048.38;4382821;32;33854;-83
2021/05/21 00:17:36;;;;;;;;;;;;;;;14.06;56.54;100039.59;4395798;32;33834;-84
2021/05/21 00:20:05;;;;;;;4.82;3.53;;;;;;;14.18;56.46;100038.59;4382707;32;34022;-84
2021/05/21 00:22:32;;;;;;;5.07;3.67;;;;;;;14.17;56.37;100040.34;4382563;32;33486;-83
2021/05/21 00:25:01;;;;;;;4.57;4.10;;;;;;;14.06;56.41;100050.06;4382687;32;32960;-83
2021/05/21 00:27:31;;;;;;;4.22;3.75;;;;;;;13.95;56.78;100044.03;4395880;32;34988;-83
2021/05/21 00:29:59;;;;;;;3.95;3.55;;;;;;;14.05;56.79;100039.59;4409123;32;34476;-83
2021/05/21 00:32:27;;;;;;;7.10;3.90;;;;;;;14.02;56.72;100044.88;4395295;32;34120;-83
2021/05/21 00:35:00;;;;;;;4.75;4.10;;;;;;;13.88;57.07;100045.00;4408329;32;33310;-83
2021/05/21 00:37:28;;;;;;;5.00;4.12;;;;;;;13.96;56.96;100050.16;4394024;32;33971;-83
2021/05/21 00:39:55;;;;;;;4.20;3.80;;;;;;;14.05;56.76;100047.44;4407626;32;34173;-84
2021/05/21 00:42:23;;;;;;;4.18;3.78;;;;;;;13.93;57.09;100045.81;4407466;32;35379;-84
2021/05/21 00:44:59;;;;;;;5.50;4.13;;;;;;;13.93;57.20;100042.38;4395994;32;34100;-85
2021/05/21 00:47:27;;;;;;;8.50;4.28;;;;;;;13.91;57.17;100038.88;4408799;32;34589;-84
2021/05/21 00:49:56;;;;;;;4.82;3.97;;;;;;;13.96;57.01;100037.94;4394939;32;34813;-84
2021/05/21 00:52:26;;;;;;;5.00;3.78;;;;;;;13.97;57.01;100039.69;4394964;32;34712;-85
2021/05/21 00:54:55;;;;;;;7.28;4.15;;;;;;;13.97;57.23;100037.09;4395188;32;34639;-84
2021/05/21 00:57:25;;;;;;;6.18;3.83;;;;;;;13.97;57.23;100044.94;4395125;32;33923;-85
2021/05/21 00:59:54;;;;;;;5.90;3.67;;;;;;;13.81;57.47;100048.53;4394812;32;34381;-84
2021/05/21 01:02:22;;;;;;;4.57;4.18;;;;;;;13.87;57.43;100047.63;4382471;32;34935;-84
2021/05/21 01:04:50;;;;;;;5.45;3.75;;;;;;;13.78;57.54;100048.59;4408630;32;34164;-84
2021/05/21 01:07:18;;;;;;;5.75;4.40;;;;;;;13.70;57.89;100053.03;4394889;32;34643;-84
2021/05/21 01:09:46;;;;;;;6.82;4.10;;;;;;;13.87;57.52;100048.50;4394807;32;34336;-84
2021/05/21 01:12:14;;;;;;;7.28;4.22;;;;;;;13.89;57.45;100051.09;4394819;32;35068;-84
2021/05/21 01:14:52;;;;;;;5.07;4.45;;;;;;;13.85;57.31;100055.50;4394801;32;33222;-85
2021/05/21 01:17:21;;;;;;;4.68;4.10;;;;;;;13.91;57.49;100059.78;4394823;32;34573;-84
2021/05/21 01:19:49;;;;;;;5.75;4.40;;;;;;;13.86;57.42;100046.75;4394497;32;34473;-84
2021/05/21 01:22:17;;;;;;;6.03;4.35;;;;;;;13.72;57.81;100043.41;4408221;32;34249;-84
2021/05/21 01:24:46;;;;;;;5.82;4.28;;;;;;;13.71;58.10;100052.16;4394728;32;34052;-84
2021/05/21 01:27:14;;;;;;;8.02;3.92;;;;;;;13.73;57.90;100046.91;4394560;32;33799;-84
2021/05/21 01:29:41;;;;;;;4.55;3.95;;;;;;;13.92;57.53;100049.34;4394543;32;34405;-84
2021/05/21 01:32:10;;;;;;;6.75;4.20;;;;;;;13.85;57.53;100060.72;4394694;32;34666;-84
2021/05/21 01:34:39;;;;;;;5.57;4.37;;;;;;;13.87;57.38;100063.31;4382519;32;34060;-83
2021/05/21 01:37:16;;;;;;;5.93;3.97;;;;;;;13.91;57.24;100062.41;4413252;32;33693;-84
2021/05/21 01:39:54;;;;;;;5.62;4.43;;;;;;;13.87;57.30;100069.41;4385492;32;34917;-83
2021/05/21 01:42:21;;;;;;;4.82;4.03;;;;;;;13.89;57.30;100072.00;4393994;32;33964;-83
2021/05/21 01:44:54;;;;;;;5.12;4.07;;;;;;;13.86;57.46;100061.59;4394151;32;33487;-83
2021/05/21 01:47:22;;;;;;;4.85;4.20;;;;;;;13.82;57.54;100065.97;4394850;32;34536;-83
2021/05/21 01:49:50;;;;;;;5.78;4.25;;;;;;;13.84;57.60;100063.34;4409654;32;34504;-83
2021/05/21 01:52:17;;;;;;;5.32;4.53;;;;;;;13.89;57.34;100061.56;4409455;32;34728;-83
2021/05/21 01:54:45;;;;;;;6.05;4.57;;;;;;;13.92;57.12;100061.53;4409835;32;34859;-83
2021/05/21 01:57:14;;;;;;;5.43;4.65;;;;;;;13.79;57.52;100066.00;4396209;32;34585;-83
2021/05/21 01:59:41;;;;;;;4.85;4.43;;;;;;;13.78;57.59;100066.03;4383588;32;34824;-83
2021/05/21 02:02:09;;;;;;;6.28;4.78;;;;;;;13.77;57.77;100062.53;4396112;32;34732;-84
2021/05/21 02:04:41;;;;;;;8.27;4.82;;;;;;;13.70;57.92;100058.25;4396252;32;32899;-84
2021/05/21 02:07:16;;;;;;;8.93;4.80;;;;;;;13.70;57.88;100066.09;4396679;32;34578;-84
2021/05/21 02:09:47;;;;;;;7.05;4.40;;;;;;;13.70;57.84;100060.84;4408643;32;34318;-83
2021/05/21 02:12:15;;;;;;;5.57;4.62;;;;;;;13.78;57.15;100064.28;4396102;32;33928;-83
2021/05/21 02:14:42;;;;;;;5.93;4.47;;;;;;;13.83;57.29;100062.50;4396225;32;33532;-84
2021/05/21 02:17:11;;;;;;;5.18;4.68;;;;;;;13.80;57.41;100062.50;4396296;32;33900;-83
2021/05/21 02:19:38;;;;;;;5.28;4.53;;;;;;;13.71;57.56;100060.00;4408391;32;35232;-83
2021/05/21 02:22:07;;;;;;;5.35;4.35;;;;;;;13.61;57.77;100065.28;4396222;32;34434;-84
2021/05/21 02:24:35;;;;;;;6.97;5.37;;;;;;;13.52;58.00;100055.78;4409755;32;33724;-85
2021/05/21 02:27:03;;;;;;;5.53;5.03;;;;;;;13.42;58.18;100056.75;4383837;32;33459;-84
2021/05/21 02:29:31;;;;;;;5.35;4.85;;;;;;;13.20;59.04;100057.75;4395825;32;35309;-84
2021/05/21 02:31:59;;;;;;;7.53;5.35;;;;;;;13.18;59.06;100057.78;4408563;32;34518;-84
2021/05/21 02:34:27;;;;;;;7.00;4.97;;;;;;;13.00;59.71;100059.62;4383467;32;33658;-83
2021/05/21 02:36:55;;;;;;;10.32;5.50;;;;;;;13.25;59.10;100056.00;4395886;32;35084;-84
2021/05/21 02:39:23;;;;;;;5.43;4.80;;;;;;;13.26;58.96;100057.72;4395852;32;34680;-83
2021/05/21 02:41:51;;;;;;;7.53;4.80;;;;;;;13.21;59.15;100049.06;4395549;32;33423;-84
2021/05/21 02:44:19;;;;;;;7.82;5.40;;;;;;;13.34;59.00;100055.91;4395907;32;33993;-83
2021/05/21 02:46:47;;;;;;;5.65;5.05;;;;;;;13.41;58.61;100057.59;4395912;32;34528;-83
2021/05/21 02:49:19;;;;;;;5.72;5.12;;;;;;;13.37;58.67;100061.13;4409436;32;35285;-84
2021/05/21 02:51:48;;;;;;;6.20;5.15;;;;;;;13.29;58.89;100057.69;4396544;32;35310;-84
2021/05/21 02:54:16;;;;;;;6.55;4.80;;;;;;;13.34;58.69;100050.69;4395974;32;34562;-84
2021/05/21 02:56:44;;;;;;;7.55;4.93;;;;;;;13.36;58.71;100059.41;4396096;32;34635;-84
2021/05/21 02:59:12;;;;;;;5.20;4.68;;;;;;;13.43;58.33;100061.09;4395028;32;34945;-84
2021/05/21 03:01:41;;;;;;;5.03;4.53;;;;;;;13.47;58.07;100065.41;4396443;32;35598;-84
2021/05/21 03:04:08;;;;;;;8.98;4.97;;;;;;;13.41;58.38;100060.22;4396367;32;33433;-84
2021/05/21 03:06:36;;;;;;;8.50;4.95;;;;;;;13.08;59.17;100061.31;4396672;32;34662;-84
2021/05/21 03:09:04;;;;;;;6.82;5.50;;;;;;;13.00;59.10;100059.62;4405117;32;34625;-85
2021/05/21 03:11:32;;;;;;;7.37;5.05;;;;;;;12.98;58.92;100056.16;4395647;32;33842;-84
2021/05/21 03:14:00;;;;;;;5.90;5.00;;;;;;;13.04;58.86;100053.47;4395744;32;33625;-84
2021/05/21 03:16:27;;;;;;;9.25;5.50;;;;;;;12.91;58.96;100056.16;4408006;32;35133;-84
2021/05/21 03:18:55;;;;;;;6.55;5.43;;;;;;;12.78;59.34;100056.25;4395401;32;34351;-84
2021/05/21 03:21:23;;;;;;;7.47;5.25;;;;;;;12.77;59.54;100063.19;4408954;32;35218;-84
2021/05/21 03:23:51;;;;;;;9.07;5.47;;;;;;;12.64;59.80;100056.31;4395739;32;33365;-84
2021/05/21 03:26:18;;;;;;;9.02;5.70;;;;;;;12.53;60.21;100058.09;4395786;32;34035;-84
2021/05/21 03:28:47;;;;;;;6.20;5.25;;;;;;;12.83;59.52;100057.97;4395520;32;35231;-84
2021/05/21 03:31:17;;;;;;;6.82;5.32;;;;;;;13.03;59.04;100054.34;4409214;32;33933;-84
2021/05/21 03:33:44;;;;;;;6.93;4.75;;;;;;;13.01;59.15;100056.09;4395537;32;33789;-84
2021/05/21 03:36:12;;;;;;;6.82;5.07;;;;;;;13.11;58.97;100057.81;4395288;32;33885;-83
2021/05/21 03:38:40;;;;;;;5.03;4.53;;;;;;;13.02;59.20;100056.12;4395680;32;35050;-83
2021/05/21 03:41:08;;;;;;;8.63;5.28;;;;;;;12.75;59.79;100066.69;4395497;32;35053;-84
2021/05/21 03:43:37;;;;;;;5.47;4.57;;;;;;;12.33;61.25;100070.34;4383213;32;32890;-84
2021/05/21 03:46:06;;;;;;;5.50;4.95;;;;;;;12.59;60.65;100065.91;4383313;32;33665;-83
2021/05/21 03:48:33;;;;;;;6.35;5.28;;;;;;;12.68;60.50;100059.75;4409130;32;34492;-84
2021/05/21 03:51:01;;;;;;;5.07;4.57;;;;;;;12.66;60.93;100058.91;4395711;32;34045;-84
2021/05/21 03:53:29;;;;;;;7.12;4.90;;;;;;;12.64;61.00;100058.94;4408265;32;33476;-84
2021/05/21 03:55:56;;;;;;;7.37;5.15;;;;;;;12.79;60.85;100065.78;4395226;32;33201;-84
2021/05/21 03:58:24;;;;;;;6.22;4.97;;;;;;;12.97;60.60;100062.22;4395483;32;34322;-84
2021/05/21 04:00:54;;;;;;;7.12;5.10;;;;;;;13.05;60.50;100063.06;4395561;32;33994;-84
2021/05/21 04:03:22;;;;;;;6.45;5.05;;;;;;;13.25;59.98;100054.25;4395415;32;34157;-84
2021/05/21 04:05:50;;;;;;;6.43;4.70;;;;;;;13.32;60.04;100055.94;4395536;32;33930;-84
2021/05/21 04:08:18;;;;;;;5.97;4.80;;;;;;;13.30;60.34;100064.66;4383086;32;35779;-84
2021/05/21 04:10:46;;;;;;;6.15;4.68;;;;;;;13.43;60.14;100066.31;4408761;32;34207;-84
2021/05/21 04:13:14;;;;;;;9.10;5.18;;;;;;;13.51;60.07;100065.38;4383170;32;34058;-84
2021/05/21 04:15:41;;;;;;;8.68;4.75;;;;;;;13.70;59.81;100067.81;4395262;32;33171;-84
2021/05/21 04:18:12;;;;;;;6.57;4.90;;;;;;;13.75;59.85;100064.31;4407867;32;34823;-84
2021/05/21 04:20:40;;;;;;;5.90;5.07;;;;;;;13.84;59.82;100069.44;4395729;32;35273;-84
2021/05/21 04:23:07;;;;;;;7.25;4.62;;;;;;;13.92;59.77;100070.25;4382715;32;32993;-84
2021/05/21 04:25:36;;;;;;;6.68;4.55;;;;;;;13.85;59.99;100070.31;4395422;32;33777;-84
2021/05/21 04:28:04;;;;;;;6.85;4.28;;;;;;;14.03;59.32;100065.78;4395161;32;34637;-84
2021/05/21 04:30:31;;;;;;;5.35;4.30;;;;;;;14.09;59.18;100070.97;4395501;32;34498;-84
2021/05/21 04:32:59;;;;;;;5.47;3.70;;;;;;;14.18;58.75;100070.87;4395994;32;34554;-84
2021/05/21 04:35:27;;;;;;;8.18;4.20;;;;;;;14.23;57.55;100068.19;4395208;32;33376;-84
2021/05/21 04:37:54;;;;;;;7.53;3.40;;;;;;;14.17;58.05;100061.25;4395935;32;34342;-84
2021/05/21 04:40:24;;;;;;;4.30;3.53;;;;;;;14.27;57.44;100069.88;4405310;32;34395;-84
2021/05/21 04:42:51;;;;;;;4.22;3.40;;;;;;;14.32;56.74;100062.00;4395316;32;33654;-84
2021/05/21 04:45:19;;;;;;;9.05;4.57;;;;;;;14.17;57.66;100061.25;4394961;32;34380;-83
2021/05/21 04:47:47;;;;;;;3.70;3.20;;;;;;;14.06;57.66;100064.88;4395048;32;35816;-83
2021/05/21 04:50:15;;;;;;;8.65;4.18;;;;;;;14.20;57.27;100061.25;4407604;32;34014;-83
2021/05/21 04:52:42;;;;;;;4.97;3.80;;;;;;;14.25;57.32;100069.91;4407383;32;33307;-83
2021/05/21 04:55:11;;;;;;;7.00;3.85;;;;;;;14.41;56.87;100070.63;4394867;32;33849;-84
2021/05/21 04:57:38;;;;;;;4.32;3.70;;;;;;;14.56;56.88;100069.59;4394728;32;35113;-84
2021/05/21 05:00:07;;;;;;;6.30;4.40;;;;;;;14.65;56.72;100077.31;4408324;32;34812;-84
2021/05/21 05:02:35;;;;;;;7.18;4.47;;;;;;;14.58;57.35;100075.66;4394642;32;33421;-84
2021/05/21 05:05:03;;;;;;;6.00;4.85;;;;;;;14.77;56.98;100074.56;4407075;32;34097;-84
2021/05/21 05:07:30;;;;;;;6.55;4.68;;;;;;;14.87;56.78;100065.69;4394873;32;35578;-84
2021/05/21 05:09:58;;;;;;;8.45;5.57;;;;;;;14.90;57.24;100068.28;4408181;32;33826;-84
2021/05/21 05:12:26;;;;;;;6.15;2.90;;;;;;;15.02;56.74;100068.13;4407287;32;34145;-83
2021/05/21 05:14:55;;;;;;;8.65;4.60;;;;;;;14.90;58.03;100074.37;4394950;32;34675;-85
2021/05/21 05:17:24;;;;;;;5.97;4.28;;;;;;;15.36;57.28;100074.59;4394838;32;34488;-85
2021/05/21 05:19:51;;;;;;;5.25;4.72;;;;;;;15.61;55.15;100066.38;4394760;32;34186;-84
2021/05/21 05:22:20;;;;;;;5.05;4.45;;;;;;;15.53;55.64;100072.59;4395209;32;34561;-85
2021/05/21 05:24:48;;;;;;;5.18;4.05;;;;;;;15.89;54.57;100065.00;4393318;32;33891;-84
2021/05/21 05:27:15;;;;;;;4.90;4.47;;;;;;;15.82;55.06;100068.63;4393056;32;34854;-85
2021/05/21 05:29:48;;;;;;;6.28;4.20;;;;;;;15.77;55.82;100071.34;4395439;32;34773;-84
2021/05/21 05:32:17;;;;;;;5.43;3.80;;;;;;;15.86;55.38;100067.69;4396249;32;34616;-84
2021/05/21 05:34:45;;;;;;;5.90;4.10;;;;;;;15.88;55.06;100073.78;4396122;32;35142;-86
2021/05/21 05:37:12;;;;;;;6.78;4.18;;;;;;;16.12;53.50;100068.09;4408590;32;34461;-84
2021/05/21 05:39:40;;;;;;;6.80;3.70;;;;;;;16.12;54.07;100068.97;4396232;32;34007;-84
2021/05/21 05:42:08;;;;;;;4.87;2.97;;;;;;;16.18;54.00;100068.00;4396168;32;34274;-84
2021/05/21 05:44:36;;;;;;;7.03;3.22;;;;;;;16.30;53.91;100070.38;4395855;32;33815;-84
2021/05/21 05:47:04;;;;;;;3.78;2.62;;;;;;;16.33;53.92;100072.94;4395819;32;34305;-85
2021/05/21 05:49:32;;;;;;;4.28;2.97;;;;;;;16.50;52.71;100072.59;4396089;32;34530;-84
2021/05/21 05:51:59;;;;;;;4.93;2.50;;;;;;;16.53;52.72;100069.94;4396136;32;33464;-85
2021/05/21 05:54:27;;;;;;;4.75;3.05;;;;;;;16.59;52.36;100081.19;4408419;32;33820;-85
2021/05/21 05:56:55;;;;;;;3.60;2.87;;;;;;;16.63;53.08;100088.13;4395806;32;35646;-85
2021/05/21 05:59:25;;;;;;;5.90;2.70;;;;;;;16.60;52.74;100077.69;4395960;32;34193;-85
2021/05/21 06:01:54;;;;;;;3.12;2.40;;;;;;;16.71;53.72;100075.69;4409683;32;33571;-84
2021/05/21 06:04:21;;;;;;;3.08;2.10;;;;;;;16.80;54.03;100074.66;4396570;32;35312;-84
2021/05/21 06:06:50;;;;;;;5.10;2.62;;;;;;;17.01;51.41;100073.31;4396068;32;34570;-85
2021/05/21 06:09:17;;;;;;;2.40;2.20;;;;;;;16.87;54.61;100074.50;4396229;32;34004;-84
2021/05/21 06:11:49;;;;;;;6.90;2.85;;;;;;;17.22;52.30;100078.97;4410638;32;33485;-84
2021/05/21 06:14:17;;;;;;;4.47;2.60;;;;;;;17.24;51.07;100076.28;4395831;32;34667;-84
2021/05/21 06:16:45;;;;;;;2.53;2.22;;;;;;;17.50;49.37;100077.44;4409368;32;35318;-83
2021/05/21 06:19:13;;;;;;;3.47;1.90;;;;;;;17.70;48.92;100068.22;4396365;32;35010;-84
2021/05/21 06:21:40;;;;;;;2.85;2.20;;;;;;;17.78;47.94;100066.28;4395718;32;33335;-85
2021/05/21 06:24:09;;;;;;;2.42;1.90;;;;;;;17.90;47.81;100068.59;4392399;32;34333;-83
2021/05/21 06:27:15;;;;;;;1.92;1.50;;;;;;;17.85;48.59;100052.06;4382049;32;34640;-84
2021/05/21 06:29:32;;;;;;;3.45;2.25;;;;;;;17.95;45.72;100064.06;4397973;32;34682;-84
2021/05/21 06:32:00;;;;;;;2.20;2.00;;;;;;;18.13;46.59;100067.09;4395973;32;33410;-83
2021/05/21 06:34:27;;;;;;;1.77;1.62;;;;;;;17.81;49.24;100064.41;4409487;32;34690;-85
2021/05/21 06:36:56;;;;;;;1.70;1.60;;;;;;;18.34;46.62;100065.62;4406566;32;34398;-84
2021/05/21 06:39:24;;;;;;;2.55;2.08;;;;;;;18.56;45.31;100073.84;4381079;32;34365;-84
2021/05/21 06:41:52;;;;;;;3.12;2.50;;;;;;;18.65;45.69;100065.69;4392766;32;33319;-83
2021/05/21 06:44:20;;;;;;;2.60;2.33;;;;;;;18.86;44.77;100063.28;4393101;32;34895;-82
2021/05/21 06:46:48;;;;;;;5.45;2.15;;;;;;;19.02;45.42;100068.94;4408727;32;35179;-83
2021/05/21 06:49:15;;;;;;;3.08;2.10;;;;;;;19.17;47.40;100059.72;4395628;32;35272;-82
2021/05/21 06:51:43;;;;;;;3.17;2.08;;;;;;;19.44;44.80;100067.69;4395638;32;34905;-86
2021/05/21 06:54:13;;;;;;;3.40;1.98;;;;;;;19.23;47.35;100060.38;4396177;32;34025;-85
2021/05/21 06:56:41;;;;;;;5.50;1.70;;;;;;;19.56;46.34;100050.59;4383976;32;34377;-85
2021/05/21 06:59:08;;;;;;;2.90;1.50;;;;;;;19.95;42.78;100051.00;4395865;32;34125;-86
2021/05/21 07:01:36;;;;;;;3.75;2.05;;;;;;;20.09;44.86;100048.75;4395711;32;33261;-86
2021/05/21 07:04:04;;;;;;;2.17;1.85;;;;;;;20.19;44.49;100040.47;4395904;32;34063;-86
2021/05/21 07:06:32;;;;;;;10.57;2.45;;;;;;;20.51;44.14;100051.69;4408250;32;34636;-85
2021/05/21 07:09:00;;;;;;;2.85;1.35;;;;;;;20.63;44.12;100040.66;4395916;32;33983;-86
2021/05/21 07:11:27;;;;;;;1.40;1.30;;;;;;;20.65;44.48;100041.47;4395508;32;34024;-86
2021/05/21 07:13:56;;;;;;;1.55;1.40;;;;;;;21.06;39.48;100039.94;4395570;32;34400;-86
2021/05/21 07:16:25;;;;;;;1.70;1.40;;;;;;;21.14;41.79;100040.47;4409205;32;34583;-85
2021/05/21 07:18:53;;;;;;;2.37;1.20;;;;;;;21.24;41.21;100034.78;4395328;32;35257;-85
2021/05/21 07:21:21;;;;;;;2.72;1.37;;;;;;;21.37;40.10;100035.16;4395900;32;33266;-86
2021/05/21 07:23:52;;;;;;;2.03;0.90;;;;;;;21.42;37.43;100033.16;4395872;32;34804;-85
2021/05/21 07:26:20;;;;;;;2.40;1.08;;;;;;;21.53;34.76;100034.47;4409251;32;34511;-85
2021/05/21 07:28:48;;;;;;;2.65;0.98;;;;;;;21.55;35.67;100034.41;4395411;32;34171;-85
2021/05/21 07:31:17;;;;;;;4.55;1.10;;;;;;;21.56;36.78;100026.38;4395442;32;33393;-85
2021/05/21 07:33:45;;;;;;;0.90;0.85;;;;;;;21.46;36.62;100032.12;4395351;32;33767;-86
2021/05/21 07:36:13;;;;;;;1.30;0.90;;;;;;;21.84;35.06;100015.56;4395386;32;34637;-85
2021/05/21 07:38:41;;;;;;;1.30;1.10;;;;;;;21.96;36.85;100020.31;4395590;32;35277;-85
2021/05/21 07:41:09;;;;;;;2.62;0.80;;;;;;;22.20;37.09;100024.53;4409151;32;33938;-85
2021/05/21 07:43:37;;;;;;;3.25;0.80;;;;;;;22.57;34.47;100023.75;4395317;32;34284;-85
2021/05/21 07:46:09;;;;;;;3.00;0.73;;;;;;;22.63;33.95;100025.31;4394761;32;34371;-84
2021/05/21 07:48:37;;;;;;;1.30;0.85;;;;;;;22.66;31.27;100025.16;4395209;32;33511;-84
2021/05/21 07:51:04;;;;;;;2.42;0.88;;;;;;;22.75;33.03;100032.66;4395781;32;33315;-85
2021/05/21 07:53:33;;;;;;;3.12;1.08;;;;;;;22.78;32.20;100016.63;4408388;32;35234;-85
2021/05/21 07:56:03;;;;;;;2.20;0.90;;;;;;;22.86;32.95;100022.44;4407602;32;34389;-86
2021/05/21 07:58:31;;;;;;;4.03;1.17;;;;;;;22.84;33.80;100022.50;4380026;32;103928;-85
2021/05/21 08:00:59;;;;;;;5.30;2.00;;;;;;;22.74;35.05;100020.37;4395200;32;33546;-85
2021/05/21 08:03:27;;;;;;;3.08;1.00;;;;;;;22.85;35.20;100023.37;4395574;32;33343;-85
2021/05/21 08:05:57;;;;;;;3.75;0.90;;;;;;;22.51;34.20;100023.19;4395198;32;34683;-85
2021/05/21 08:08:26;;;;;;;0.75;0.73;;;;;;;22.55;34.73;100019.44;4382756;32;34613;-85
2021/05/21 08:10:58;;;;;;;2.67;1.00;;;;;;;22.55;34.32;100030.06;4395325;32;34061;-85
2021/05/21 08:13:26;;;;;;;2.22;0.98;;;;;;;22.62;34.47;100023.56;4395350;32;34679;-85
2021/05/21 08:15:55;;;;;;;2.42;0.95;;;;;;;22.84;33.23;100016.37;4395195;32;35277;-85
2021/05/21 08:18:23;;;;;;;1.80;1.00;;;;;;;22.76;34.30;100018.50;4394966;32;34667;-85
2021/05/21 08:20:50;;;;;;;2.17;1.55;;;;;;;23.07;32.54;100012.59;4394977;32;33642;-86
2021/05/21 08:23:18;;;;;;;2.85;1.50;;;;;;;22.85;34.50;100015.41;4382836;32;34745;-85
2021/05/21 08:25:46;;;;;;;5.87;1.75;;;;;;;22.89;35.27;100003.75;4394912;32;34672;-85
2021/05/21 08:28:14;;;;;;;1.92;1.50;;;;;;;22.79;36.19;100007.75;4395139;32;34201;-85
2021/05/21 08:30:42;;;;;;;3.70;1.30;;;;;;;23.06;35.07;100008.25;4394971;32;34557;-85
2021/05/21 08:33:10;;;;;;;3.10;1.20;;;;;;;23.20;33.36;100003.97;4408565;32;33732;-86
2021/05/21 08:35:38;;;;;;;2.30;1.30;;;;;;;23.04;33.21;100018.91;4395135;32;34613;-86
2021/05/21 08:38:06;;;;;;;4.68;1.20;;;;;;;22.88;32.94;100024.09;4408874;32;34059;-85
2021/05/21 08:40:38;;;;;;;4.18;1.12;;;;;;;23.10;32.39;100015.12;4395078;32;33531;-85
2021/05/21 08:43:08;;;;;;;2.33;1.10;;;;;;;23.10;32.89;100013.34;4395207;32;33918;-84
2021/05/21 08:45:37;;;;;;;1.87;1.27;;;;;;;23.05;33.50;100002.09;4395186;32;34411;-85
2021/05/21 08:48:12;;;;;;;6.30;1.50;;;;;;;23.09;33.45;99989.50;4382300;32;34910;-84
2021/05/21 08:50:42;;;;;;;2.90;1.75;;;;;;;23.01;33.56;99995.19;4382579;32;33372;-86
2021/05/21 08:53:09;;;;;;;2.60;1.58;;;;;;;22.90;35.05;99986.88;4394643;32;33661;-84
2021/05/21 08:55:37;;;;;;;2.00;1.23;;;;;;;22.79;34.03;99992.72;4382419;32;35013;-86
2021/05/21 08:58:12;;;;;;;2.92;1.50;;;;;;;22.62;35.85;99989.12;4394296;32;34421;-86
2021/05/21 09:00:40;;;;;;;2.45;1.27;;;;;;;22.67;35.20;99984.47;4395263;32;33376;-86
2021/05/21 09:03:26;;;;;;;2.45;1.40;;;;;;;22.67;36.07;99976.50;4394876;32;33770;-85
2021/05/21 09:06:16;;;;;;;1.33;0.88;;;;;;;23.00;34.71;99969.59;4395004;32;34582;-86
2021/05/21 09:08:45;;;;;;;3.33;1.10;;;;;;;23.25;35.02;99970.13;4408406;32;33849;-85
2021/05/21 09:11:23;;;;;;;2.55;1.12;;;;;;;23.33;33.40;99965.31;4394811;32;33408;-86
2021/05/21 09:13:53;;;;;;;1.77;1.40;;;;;;;23.23;32.16;99966.69;4396850;32;33895;-85
2021/05/21 09:16:22;;;;;;;2.42;0.98;;;;;;;23.15;33.72;99973.31;4382194;32;34391;-85
2021/05/21 09:19:11;;;;;;;1.62;1.02;;;;;;;23.14;33.82;99972.44;4382245;32;33922;-84
2021/05/21 09:21:54;;;;;;;2.30;0.93;;;;;;;23.39;32.50;99972.97;4407837;32;33580;-86
2021/05/21 09:24:28;;;;;;;1.73;0.98;;;;;;;23.53;33.31;99965.19;4407499;32;34316;-86
2021/05/21 09:26:56;;;;;;;2.50;0.70;;;;;;;23.55;32.64;99955.37;4394059;32;34377;-85
2021/05/21 09:29:34;;;;;;;2.03;0.80;;;;;;;23.71;31.73;99957.22;4381946;32;34506;-86
2021/05/21 09:32:18;;;;;;;2.95;1.42;;;;;;;23.82;31.50;99958.41;4394443;32;34155;-88
2021/05/21 09:34:48;;;;;;;1.83;1.10;;;;;;;23.71;31.76;99959.88;4406867;32;33704;-86
2021/05/21 09:37:24;;;;;;;3.05;1.67;;;;;;;23.86;32.97;99959.97;4394414;32;34406;-85
2021/05/21 09:40:09;;;;;;;1.25;1.15;;;;;;;23.86;32.05;99951.12;4394914;32;33966;-85
2021/05/21 09:42:52;;;;;;;1.27;0.90;;;;;;;23.82;31.49;99945.13;4407679;32;33351;-85
2021/05/21 09:45:32;;;;;;;1.58;0.93;;;;;;;23.62;33.71;99958.56;4394728;32;34870;-87
2021/05/21 09:48:08;;;;;;;1.62;0.98;;;;;;;23.48;33.63;99946.00;4406888;32;34369;-86
2021/05/21 09:50:41;;;;;;;2.65;1.10;;;;;;;23.35;33.82;99950.19;4394162;32;33544;-86
2021/05/21 09:53:16;;;;;;;2.87;1.25;;;;;;;23.45;34.26;99942.63;4408143;32;34173;-88
2021/05/21 09:56:04;;;;;;;1.05;0.80;;;;;;;23.58;35.22;99941.94;4381810;32;33298;-87
2021/05/21 09:58:47;;;;;;;1.37;0.80;;;;;;;23.65;33.56;99938.97;4382681;32;33951;-87
2021/05/21 10:01:16;;;;;;;1.17;1.00;;;;;;;23.87;32.78;99945.75;4406571;32;34457;-84
2021/05/21 10:03:45;;;;;;;1.33;1.10;;;;;;;23.82;33.16;99946.94;4407684;32;33959;-84
2021/05/21 10:06:13;;;;;;;1.45;0.93;;;;;;;23.95;32.00;99943.56;4407493;32;33913;-85
2021/05/21 10:08:43;;;;;;;1.15;0.90;;;;;;;23.49;33.35;99937.09;4395210;32;34788;-85
2021/05/21 10:11:12;;;;;;;2.40;0.80;;;;;;;23.65;32.80;99936.31;4408724;32;35456;-86
2021/05/21 10:13:44;;;;;;;1.55;0.80;;;;;;;23.65;33.13;99931.00;4383961;32;33693;-87
2021/05/21 10:16:14;;;;;;;1.92;0.90;;;;;;;23.81;32.92;99926.63;4396873;32;33879;-87
2021/05/21 10:18:49;;;;;;;2.92;0.98;;;;;;;23.49;32.97;99921.16;4383740;32;34224;-87
2021/05/21 10:21:18;;;;;;;1.00;0.90;;;;;;;23.23;34.44;99918.94;4395749;32;35062;-85
2021/05/21 10:23:59;;;;;;;1.80;0.70;;;;;;;23.59;33.74;99916.25;4396018;32;33304;-83
2021/05/21 10:26:33;;;;;;;3.42;0.90;;;;;;;23.39;33.48;99913.75;4395781;32;34012;-87
2021/05/21 10:29:08;;;;;;;1.10;0.60;;;;;;;23.61;34.27;99902.87;4396907;32;34003;-87
2021/05/21 10:31:35;;;;;;;3.90;1.00;;;;;;;23.82;32.23;99917.72;4395889;32;34135;-85
2021/05/21 10:34:18;;;;;;;4.78;0.80;;;;;;;23.71;32.52;99899.69;4396136;32;33256;-86
2021/05/21 10:37:28;;;;;;;2.60;1.12;;;;;;;24.10;31.82;99899.41;4387887;32;34993;-85
2021/05/21 10:40:24;;;;;;;11.60;1.92;;;;;;;24.27;31.70;99894.00;4398662;32;34436;-85
2021/05/21 10:43:17;;;;;;;3.72;1.12;;;;;;;24.37;31.76;99887.25;4409224;32;34285;-85
2021/05/21 10:45:54;;;;;;;2.37;0.65;;;;;;;24.37;30.94;99878.41;4397143;32;34389;-84
2021/05/21 10:48:27;;;;;;;1.33;0.50;;;;;;;24.50;31.99;99884.78;4395942;32;34757;-87
2021/05/21 10:51:15;;;;;;;2.08;0.80;;;;;;;24.60;31.05;99873.56;4396021;32;34999;-85
2021/05/21 10:53:46;;;;;;;2.35;0.95;;;;;;;24.30;30.95;99864.63;4394947;32;34228;-84
2021/05/21 10:56:15;;;;;;;2.70;0.80;;;;;;;24.13;31.20;99880.63;4394824;32;33715;-87
2021/05/21 10:58:44;;;;;;;1.37;0.68;;;;;;;24.10;31.85;99878.97;4391795;32;34408;-85
2021/05/21 11:01:27;;;;;;;1.52;0.70;;;;;;;24.16;33.05;99869.84;4393184;32;34728;-84
2021/05/21 11:03:55;;;;;;;2.50;1.20;;;;;;;24.12;32.68;99874.47;4395181;32;34238;-84
2021/05/21 11:06:26;;;;;;;1.75;0.80;;;;;;;24.11;31.09;99862.13;4409001;32;33513;-85
2021/05/21 11:09:05;;;;;;;3.33;0.70;;;;;;;24.03;32.09;99853.66;4395621;32;34593;-84
2021/05/21 11:11:42;;;;;;;1.95;0.93;;;;;;;24.11;31.31;99859.47;4383271;32;34728;-85
2021/05/21 11:14:31;;;;;;;4.90;1.40;;;;;;;23.86;31.88;99850.22;4395841;32;35026;-85
2021/05/21 11:17:13;;;;;;;1.35;1.00;;;;;;;23.87;32.48;99835.97;4395468;32;34114;-84
2021/05/21 11:19:58;;;;;;;1.27;0.60;;;;;;;24.08;33.17;99835.69;4408289;32;35122;-85
2021/05/21 11:22:25;;;;;;;1.23;0.80;;;;;;;24.19;32.62;99825.37;4409149;32;34400;-84
2021/05/21 11:25:08;;;;;;;8.40;1.20;;;;;;;24.53;30.96;99832.28;4408815;32;35249;-85
2021/05/21 11:27:37;;;;;;;1.65;0.62;;;;;;;24.65;30.52;99834.25;4394735;32;33330;-86
2021/05/21 11:30:10;;;;;;;1.02;0.80;;;;;;;24.73;29.90;99832.03;4395081;32;34225;-85
2021/05/21 11:32:41;;;;;;;1.62;0.55;;;;;;;24.55;32.78;99832.22;4408764;32;34752;-85
2021/05/21 11:35:11;;;;;;;1.08;0.57;;;;;;;24.51;32.57;99826.19;4395099;32;34326;-84
2021/05/21 11:37:40;;;;;;;4.10;0.60;;;;;;;24.79;31.79;99817.56;4395007;32;33794;-85
2021/05/21 11:40:09;;;;;;;1.30;0.60;;;;;;;24.93;31.52;99814.09;4395344;32;34552;-84